CheckWX is a tool to help pilots better visualize weather data.  It is not intended as a substitute for an official pre-flight weather briefing.

21:46:43 UTC

KCDN METAR
Woodward Field Airport
Camden, South Carolina, USA
Current

12 mins ago

KCDN 232135Z AUTO 01006KT 3/4SM BR OVC004 07/07 A3019 RMK AO2
Observed
Feb-23 @ 21:35 UTC
Wind
  • 010° at 6 KTS
Visibility
3/4 SM
Flight Rules
LIFR
Conditions
Mist
Cloud Levels
  • Overcast at 400' AGL
Temperature
C / 45°F
Dewpoint
C / 45°F
Humidity
100%
Altimeter
30.19" Hg
Pressure
1022.32 hPa
Previous

32 mins ago

KCDN 232115Z AUTO 35005KT 1 1/2SM BR OVC004 07/07 A3019 RMK AO2
Observed
Feb-23 @ 21:15 UTC
Wind
  • 350° at 5 KTS
Visibility
1 1/2 SM
Flight Rules
LIFR
Conditions
Mist
Cloud Levels
  • Overcast at 400' AGL
Temperature
C / 45°F
Dewpoint
C / 45°F
Humidity
100%
Altimeter
30.19" Hg
Pressure
1022.32 hPa
Previous

52 mins ago

KCDN 232055Z AUTO 01007KT 2 1/2SM BR OVC005 07/07 A3019 RMK AO2
Observed
Feb-23 @ 20:55 UTC
Wind
  • 010° at 7 KTS
Visibility
2 1/2 SM
Flight Rules
IFR
Conditions
Mist
Cloud Levels
  • Overcast at 500' AGL
Temperature
C / 45°F
Dewpoint
C / 45°F
Humidity
100%
Altimeter
30.19" Hg
Pressure
1022.32 hPa